sensor_id;sensor_type;location;lat;lon;timestamp;temperature;humidity
22827;DHT22;11580;52.562;13.418;2023-04-07T00:00:54;7.80;22.30
22827;DHT22;11580;52.562;13.418;2023-04-07T00:03:21;7.80;22.30
22827;DHT22;11580;52.562;13.418;2023-04-07T00:05:48;7.80;22.30
22827;DHT22;11580;52.562;13.418;2023-04-07T00:08:15;7.80;22.80
22827;DHT22;11580;52.562;13.418;2023-04-07T00:10:43;7.70;22.30
22827;DHT22;11580;52.562;13.418;2023-04-07T00:13:11;7.70;22.30
22827;DHT22;11580;52.562;13.418;2023-04-07T00:15:38;7.70;22.30
22827;DHT22;11580;52.562;13.418;2023-04-07T00:18:06;7.70;22.30
22827;DHT22;11580;52.562;13.418;2023-04-07T00:20:33;7.60;22.30
22827;DHT22;11580;52.562;13.418;2023-04-07T00:23:00;7.60;22.30
22827;DHT22;11580;52.562;13.418;2023-04-07T00:25:27;7.50;22.20
22827;DHT22;11580;52.562;13.418;2023-04-07T00:27:54;7.50;22.20
22827;DHT22;11580;52.562;13.418;2023-04-07T00:30:23;7.50;22.30
22827;DHT22;11580;52.562;13.418;2023-04-07T00:32:50;7.40;22.90
22827;DHT22;11580;52.562;13.418;2023-04-07T00:35:18;7.40;23.00
22827;DHT22;11580;52.562;13.418;2023-04-07T00:37:46;7.30;22.50
22827;DHT22;11580;52.562;13.418;2023-04-07T00:40:13;7.30;22.50
22827;DHT22;11580;52.562;13.418;2023-04-07T00:42:40;7.30;22.60
22827;DHT22;11580;52.562;13.418;2023-04-07T00:45:08;7.20;22.60
22827;DHT22;11580;52.562;13.418;2023-04-07T00:47:38;7.20;22.70
22827;DHT22;11580;52.562;13.418;2023-04-07T00:50:07;7.20;22.70
22827;DHT22;11580;52.562;13.418;2023-04-07T00:52:35;7.20;22.70
22827;DHT22;11580;52.562;13.418;2023-04-07T00:55:02;7.10;22.60
22827;DHT22;11580;52.562;13.418;2023-04-07T00:57:30;7.10;22.60
22827;DHT22;11580;52.562;13.418;2023-04-07T00:59:57;7.10;22.60
22827;DHT22;11580;52.562;13.418;2023-04-07T01:02:31;7.10;22.60
22827;DHT22;11580;52.562;13.418;2023-04-07T01:05:10;7.10;22.60
22827;DHT22;11580;52.562;13.418;2023-04-07T01:07:50;7.10;22.60
22827;DHT22;11580;52.562;13.418;2023-04-07T01:10:30;7.10;22.60
22827;DHT22;11580;52.562;13.418;2023-04-07T01:13:12;7.00;22.60
22827;DHT22;11580;52.562;13.418;2023-04-07T01:15:51;7.00;22.50
22827;DHT22;11580;52.562;13.418;2023-04-07T01:18:28;7.00;22.60
22827;DHT22;11580;52.562;13.418;2023-04-07T01:21:03;7.00;22.60
22827;DHT22;11580;52.562;13.418;2023-04-07T01:23:44;7.00;22.70
22827;DHT22;11580;52.562;13.418;2023-04-07T01:26:28;7.00;22.60
22827;DHT22;11580;52.562;13.418;2023-04-07T01:32:05;7.00;22.50
22827;DHT22;11580;52.562;13.418;2023-04-07T01:34:37;7.00;22.70
22827;DHT22;11580;52.562;13.418;2023-04-07T01:37:07;7.00;22.80
22827;DHT22;11580;52.562;13.418;2023-04-07T01:39:37;7.00;22.90
22827;DHT22;11580;52.562;13.418;2023-04-07T01:42:05;7.00;23.40
22827;DHT22;11580;52.562;13.418;2023-04-07T01:44:36;7.00;22.90
22827;DHT22;11580;52.562;13.418;2023-04-07T01:47:04;7.00;22.90
22827;DHT22;11580;52.562;13.418;2023-04-07T01:49:33;6.90;22.90
22827;DHT22;11580;52.562;13.418;2023-04-07T01:52:02;6.90;22.90
22827;DHT22;11580;52.562;13.418;2023-04-07T01:54:31;6.90;23.00
22827;DHT22;11580;52.562;13.418;2023-04-07T01:56:59;6.90;23.00
22827;DHT22;11580;52.562;13.418;2023-04-07T01:59:27;6.90;23.00
22827;DHT22;11580;52.562;13.418;2023-04-07T02:01:57;6.90;23.00
22827;DHT22;11580;52.562;13.418;2023-04-07T02:04:30;6.80;23.00
22827;DHT22;11580;52.562;13.418;2023-04-07T02:07:07;6.80;23.00
22827;DHT22;11580;52.562;13.418;2023-04-07T02:09:44;6.80;23.00
22827;DHT22;11580;52.562;13.418;2023-04-07T02:12:15;6.80;23.00
22827;DHT22;11580;52.562;13.418;2023-04-07T02:14:54;6.80;23.00
22827;DHT22;11580;52.562;13.418;2023-04-07T02:17:24;6.70;23.00
22827;DHT22;11580;52.562;13.418;2023-04-07T02:19:55;6.70;23.00
22827;DHT22;11580;52.562;13.418;2023-04-07T02:22:25;6.70;23.10
22827;DHT22;11580;52.562;13.418;2023-04-07T02:24:53;6.70;23.10
22827;DHT22;11580;52.562;13.418;2023-04-07T02:27:25;6.70;23.20
22827;DHT22;11580;52.562;13.418;2023-04-07T02:29:52;6.70;23.20
22827;DHT22;11580;52.562;13.418;2023-04-07T02:32:23;6.70;23.30
22827;DHT22;11580;52.562;13.418;2023-04-07T02:34:50;6.60;23.20
22827;DHT22;11580;52.562;13.418;2023-04-07T02:37:18;6.60;23.20
22827;DHT22;11580;52.562;13.418;2023-04-07T02:39:45;6.60;23.20
22827;DHT22;11580;52.562;13.418;2023-04-07T02:42:12;6.60;23.20
22827;DHT22;11580;52.562;13.418;2023-04-07T02:44:39;6.60;23.30
22827;DHT22;11580;52.562;13.418;2023-04-07T02:47:08;6.60;23.30
22827;DHT22;11580;52.562;13.418;2023-04-07T02:49:37;6.60;23.30
22827;DHT22;11580;52.562;13.418;2023-04-07T02:52:05;6.70;23.40
22827;DHT22;11580;52.562;13.418;2023-04-07T02:54:32;6.70;23.40
22827;DHT22;11580;52.562;13.418;2023-04-07T02:57:00;6.70;23.40
22827;DHT22;11580;52.562;13.418;2023-04-07T02:59:27;6.70;23.40
22827;DHT22;11580;52.562;13.418;2023-04-07T03:01:54;6.70;23.40
22827;DHT22;11580;52.562;13.418;2023-04-07T03:04:22;6.70;23.40
22827;DHT22;11580;52.562;13.418;2023-04-07T03:06:50;6.70;23.50
22827;DHT22;11580;52.562;13.418;2023-04-07T03:09:18;6.70;23.40
22827;DHT22;11580;52.562;13.418;2023-04-07T03:11:46;6.70;23.40
22827;DHT22;11580;52.562;13.418;2023-04-07T03:14:13;6.60;23.40
22827;DHT22;11580;52.562;13.418;2023-04-07T03:16:46;6.70;23.50
22827;DHT22;11580;52.562;13.418;2023-04-07T03:19:14;6.60;23.50
22827;DHT22;11580;52.562;13.418;2023-04-07T03:21:45;6.70;23.60
22827;DHT22;11580;52.562;13.418;2023-04-07T03:24:14;6.60;23.60
22827;DHT22;11580;52.562;13.418;2023-04-07T03:26:41;6.70;23.60
22827;DHT22;11580;52.562;13.418;2023-04-07T03:29:27;6.70;24.30
22827;DHT22;11580;52.562;13.418;2023-04-07T03:31:54;6.70;23.70
22827;DHT22;11580;52.562;13.418;2023-04-07T03:34:23;6.70;23.80
22827;DHT22;11580;52.562;13.418;2023-04-07T03:36:51;6.70;23.70
22827;DHT22;11580;52.562;13.418;2023-04-07T03:39:19;6.80;23.80
22827;DHT22;11580;52.562;13.418;2023-04-07T03:41:49;6.80;23.80
22827;DHT22;11580;52.562;13.418;2023-04-07T03:44:17;6.80;23.80
22827;DHT22;11580;52.562;13.418;2023-04-07T03:46:44;6.80;23.80
22827;DHT22;11580;52.562;13.418;2023-04-07T03:49:13;6.90;23.80
22827;DHT22;11580;52.562;13.418;2023-04-07T03:51:41;6.90;24.30
22827;DHT22;11580;52.562;13.418;2023-04-07T03:54:13;6.90;23.70
22827;DHT22;11580;52.562;13.418;2023-04-07T03:56:44;6.90;23.60
22827;DHT22;11580;52.562;13.418;2023-04-07T03:59:14;6.90;23.60
22827;DHT22;11580;52.562;13.418;2023-04-07T04:01:51;6.90;23.60
22827;DHT22;11580;52.562;13.418;2023-04-07T04:04:19;6.90;23.60
22827;DHT22;11580;52.562;13.418;2023-04-07T04:06:47;6.90;23.60
22827;DHT22;11580;52.562;13.418;2023-04-07T04:09:41;6.90;23.70
22827;DHT22;11580;52.562;13.418;2023-04-07T04:12:11;6.90;23.70
22827;DHT22;11580;52.562;13.418;2023-04-07T04:14:46;6.90;23.80
22827;DHT22;11580;52.562;13.418;2023-04-07T04:17:14;6.90;23.80
22827;DHT22;11580;52.562;13.418;2023-04-07T04:19:45;6.90;23.90
22827;DHT22;11580;52.562;13.418;2023-04-07T04:22:26;7.00;23.90
22827;DHT22;11580;52.562;13.418;2023-04-07T04:24:56;7.00;24.50
22827;DHT22;11580;52.562;13.418;2023-04-07T04:27:27;7.00;24.00
22827;DHT22;11580;52.562;13.418;2023-04-07T04:30:02;7.00;23.90
22827;DHT22;11580;52.562;13.418;2023-04-07T04:32:37;7.00;23.90
22827;DHT22;11580;52.562;13.418;2023-04-07T04:35:06;7.00;24.50
22827;DHT22;11580;52.562;13.418;2023-04-07T04:37:41;7.10;24.00
22827;DHT22;11580;52.562;13.418;2023-04-07T04:40:11;7.10;24.00
22827;DHT22;11580;52.562;13.418;2023-04-07T04:42:40;7.10;23.90
22827;DHT22;11580;52.562;13.418;2023-04-07T04:45:10;7.10;23.90
22827;DHT22;11580;52.562;13.418;2023-04-07T04:47:42;7.10;23.90
22827;DHT22;11580;52.562;13.418;2023-04-07T04:50:10;7.10;23.90
22827;DHT22;11580;52.562;13.418;2023-04-07T04:52:39;7.10;23.90
22827;DHT22;11580;52.562;13.418;2023-04-07T04:55:12;7.10;23.90
22827;DHT22;11580;52.562;13.418;2023-04-07T04:57:42;7.20;24.00
22827;DHT22;11580;52.562;13.418;2023-04-07T05:00:13;7.20;24.10
22827;DHT22;11580;52.562;13.418;2023-04-07T05:02:43;7.20;24.20
22827;DHT22;11580;52.562;13.418;2023-04-07T05:05:11;7.20;24.10
22827;DHT22;11580;52.562;13.418;2023-04-07T05:07:39;7.20;24.10
22827;DHT22;11580;52.562;13.418;2023-04-07T05:10:09;7.30;24.30
22827;DHT22;11580;52.562;13.418;2023-04-07T05:12:45;7.30;24.30
22827;DHT22;11580;52.562;13.418;2023-04-07T05:15:12;7.40;24.30
22827;DHT22;11580;52.562;13.418;2023-04-07T05:17:40;7.40;24.30
22827;DHT22;11580;52.562;13.418;2023-04-07T05:20:11;7.50;24.40
22827;DHT22;11580;52.562;13.418;2023-04-07T05:22:40;7.60;24.50
22827;DHT22;11580;52.562;13.418;2023-04-07T05:25:11;7.70;24.50
22827;DHT22;11580;52.562;13.418;2023-04-07T05:27:41;7.70;24.60
22827;DHT22;11580;52.562;13.418;2023-04-07T05:30:14;7.80;24.50
22827;DHT22;11580;52.562;13.418;2023-04-07T05:32:43;7.90;24.40
22827;DHT22;11580;52.562;13.418;2023-04-07T05:35:38;8.10;24.60
22827;DHT22;11580;52.562;13.418;2023-04-07T05:38:05;8.20;25.10
22827;DHT22;11580;52.562;13.418;2023-04-07T05:40:32;8.30;24.50
22827;DHT22;11580;52.562;13.418;2023-04-07T05:43:02;8.40;24.50
22827;DHT22;11580;52.562;13.418;2023-04-07T05:45:32;8.50;25.00
22827;DHT22;11580;52.562;13.418;2023-04-07T05:48:00;8.60;24.90
22827;DHT22;11580;52.562;13.418;2023-04-07T05:50:37;8.70;24.30
22827;DHT22;11580;52.562;13.418;2023-04-07T05:53:09;8.80;24.20
22827;DHT22;11580;52.562;13.418;2023-04-07T05:55:36;8.90;24.20
22827;DHT22;11580;52.562;13.418;2023-04-07T05:58:06;9.00;24.20
22827;DHT22;11580;52.562;13.418;2023-04-07T06:00:35;9.00;24.00
22827;DHT22;11580;52.562;13.418;2023-04-07T06:03:09;9.10;23.80
22827;DHT22;11580;52.562;13.418;2023-04-07T06:05:50;9.10;23.80
22827;DHT22;11580;52.562;13.418;2023-04-07T06:08:19;9.10;24.40
22827;DHT22;11580;52.562;13.418;2023-04-07T06:10:47;9.10;23.80
22827;DHT22;11580;52.562;13.418;2023-04-07T06:13:14;9.10;23.90
22827;DHT22;11580;52.562;13.418;2023-04-07T06:15:43;9.10;24.40
22827;DHT22;11580;52.562;13.418;2023-04-07T06:18:10;9.20;23.90
22827;DHT22;11580;52.562;13.418;2023-04-07T06:20:38;9.20;23.90
22827;DHT22;11580;52.562;13.418;2023-04-07T06:23:06;9.20;24.60
22827;DHT22;11580;52.562;13.418;2023-04-07T06:25:33;9.30;24.20
22827;DHT22;11580;52.562;13.418;2023-04-07T06:28:00;9.30;24.10
22827;DHT22;11580;52.562;13.418;2023-04-07T06:30:27;9.30;24.10
22827;DHT22;11580;52.562;13.418;2023-04-07T06:32:57;9.40;24.20
22827;DHT22;11580;52.562;13.418;2023-04-07T06:35:25;9.40;24.00
22827;DHT22;11580;52.562;13.418;2023-04-07T06:37:52;9.50;24.10
22827;DHT22;11580;52.562;13.418;2023-04-07T06:40:20;9.50;24.10
22827;DHT22;11580;52.562;13.418;2023-04-07T06:42:47;9.60;24.20
22827;DHT22;11580;52.562;13.418;2023-04-07T06:45:26;9.70;24.40
22827;DHT22;11580;52.562;13.418;2023-04-07T06:47:53;9.70;24.40
22827;DHT22;11580;52.562;13.418;2023-04-07T06:50:22;9.80;24.50
22827;DHT22;11580;52.562;13.418;2023-04-07T06:52:49;9.90;24.40
22827;DHT22;11580;52.562;13.418;2023-04-07T06:55:16;9.90;24.40
22827;DHT22;11580;52.562;13.418;2023-04-07T06:57:43;10.00;23.70
22827;DHT22;11580;52.562;13.418;2023-04-07T07:00:11;10.10;23.80
22827;DHT22;11580;52.562;13.418;2023-04-07T07:02:39;10.20;23.80
22827;DHT22;11580;52.562;13.418;2023-04-07T07:05:07;10.30;24.40
22827;DHT22;11580;52.562;13.418;2023-04-07T07:07:35;10.40;23.90
22827;DHT22;11580;52.562;13.418;2023-04-07T07:10:03;10.40;23.70
22827;DHT22;11580;52.562;13.418;2023-04-07T07:12:31;10.50;23.80
22827;DHT22;11580;52.562;13.418;2023-04-07T07:14:58;10.60;23.70
22827;DHT22;11580;52.562;13.418;2023-04-07T07:17:25;10.70;23.50
22827;DHT22;11580;52.562;13.418;2023-04-07T07:19:52;10.80;23.30
22827;DHT22;11580;52.562;13.418;2023-04-07T07:22:19;10.80;22.90
22827;DHT22;11580;52.562;13.418;2023-04-07T07:24:48;10.90;22.70
22827;DHT22;11580;52.562;13.418;2023-04-07T07:27:15;11.00;22.30
22827;DHT22;11580;52.562;13.418;2023-04-07T07:29:42;11.00;22.10
22827;DHT22;11580;52.562;13.418;2023-04-07T07:32:10;11.10;22.70
22827;DHT22;11580;52.562;13.418;2023-04-07T07:34:37;11.10;22.00
22827;DHT22;11580;52.562;13.418;2023-04-07T07:37:04;11.20;21.80
22827;DHT22;11580;52.562;13.418;2023-04-07T07:39:31;11.20;21.60
22827;DHT22;11580;52.562;13.418;2023-04-07T07:42:00;11.30;21.40
22827;DHT22;11580;52.562;13.418;2023-04-07T07:44:27;11.40;21.10
22827;DHT22;11580;52.562;13.418;2023-04-07T07:46:54;11.40;21.30
22827;DHT22;11580;52.562;13.418;2023-04-07T07:49:21;11.50;20.80
22827;DHT22;11580;52.562;13.418;2023-04-07T07:51:48;11.60;20.80
22827;DHT22;11580;52.562;13.418;2023-04-07T07:54:15;11.60;20.90
22827;DHT22;11580;52.562;13.418;2023-04-07T07:56:43;11.70;20.80
22827;DHT22;11580;52.562;13.418;2023-04-07T07:59:11;11.80;20.70
22827;DHT22;11580;52.562;13.418;2023-04-07T08:01:38;11.90;20.00
22827;DHT22;11580;52.562;13.418;2023-04-07T08:04:05;12.00;20.10
22827;DHT22;11580;52.562;13.418;2023-04-07T08:06:33;12.10;20.20
22827;DHT22;11580;52.562;13.418;2023-04-07T08:09:01;12.20;20.20
22827;DHT22;11580;52.562;13.418;2023-04-07T08:11:28;12.30;20.80
22827;DHT22;11580;52.562;13.418;2023-04-07T08:13:55;12.40;20.30
22827;DHT22;11580;52.562;13.418;2023-04-07T08:16:24;12.60;20.40
22827;DHT22;11580;52.562;13.418;2023-04-07T08:18:51;12.60;19.50
22827;DHT22;11580;52.562;13.418;2023-04-07T08:21:18;12.70;19.30
22827;DHT22;11580;52.562;13.418;2023-04-07T08:23:45;12.80;19.10
22827;DHT22;11580;52.562;13.418;2023-04-07T08:26:13;12.80;19.50
22827;DHT22;11580;52.562;13.418;2023-04-07T08:28:40;12.90;18.80
22827;DHT22;11580;52.562;13.418;2023-04-07T08:31:07;12.90;19.30
22827;DHT22;11580;52.562;13.418;2023-04-07T08:33:35;12.80;18.40
22827;DHT22;11580;52.562;13.418;2023-04-07T08:36:03;12.80;18.70
22827;DHT22;11580;52.562;13.418;2023-04-07T08:38:31;12.80;18.60
22827;DHT22;11580;52.562;13.418;2023-04-07T08:41:04;12.80;18.60
22827;DHT22;11580;52.562;13.418;2023-04-07T08:43:35;12.80;18.20
22827;DHT22;11580;52.562;13.418;2023-04-07T08:46:08;12.80;19.00
22827;DHT22;11580;52.562;13.418;2023-04-07T08:48:38;12.90;18.30
22827;DHT22;11580;52.562;13.418;2023-04-07T08:51:09;12.90;18.60
22827;DHT22;11580;52.562;13.418;2023-04-07T08:53:42;13.00;19.10
22827;DHT22;11580;52.562;13.418;2023-04-07T08:56:12;13.10;18.90
22827;DHT22;11580;52.562;13.418;2023-04-07T08:58:41;13.20;18.70
22827;DHT22;11580;52.562;13.418;2023-04-07T09:01:09;13.30;18.10
22827;DHT22;11580;52.562;13.418;2023-04-07T09:03:39;13.30;18.00
22827;DHT22;11580;52.562;13.418;2023-04-07T09:06:07;13.40;17.20
22827;DHT22;11580;52.562;13.418;2023-04-07T09:08:36;13.30;17.80
22827;DHT22;11580;52.562;13.418;2023-04-07T09:11:04;13.40;17.80
22827;DHT22;11580;52.562;13.418;2023-04-07T09:13:31;13.30;17.20
22827;DHT22;11580;52.562;13.418;2023-04-07T09:16:00;13.20;17.30
22827;DHT22;11580;52.562;13.418;2023-04-07T09:18:29;13.10;17.10
22827;DHT22;11580;52.562;13.418;2023-04-07T09:20:59;13.10;17.80
22827;DHT22;11580;52.562;13.418;2023-04-07T09:23:29;13.00;17.00
22827;DHT22;11580;52.562;13.418;2023-04-07T09:25:58;13.00;17.40
22827;DHT22;11580;52.562;13.418;2023-04-07T09:28:39;12.90;17.50
22827;DHT22;11580;52.562;13.418;2023-04-07T09:31:07;12.80;17.00
22827;DHT22;11580;52.562;13.418;2023-04-07T09:33:34;12.70;17.60
22827;DHT22;11580;52.562;13.418;2023-04-07T09:36:03;12.70;17.70
22827;DHT22;11580;52.562;13.418;2023-04-07T09:38:32;12.70;17.40
22827;DHT22;11580;52.562;13.418;2023-04-07T09:41:08;12.70;17.60
22827;DHT22;11580;52.562;13.418;2023-04-07T09:43:38;12.60;16.80
22827;DHT22;11580;52.562;13.418;2023-04-07T09:46:10;12.60;17.50
22827;DHT22;11580;52.562;13.418;2023-04-07T09:48:39;12.50;17.50
22827;DHT22;11580;52.562;13.418;2023-04-07T09:51:09;12.50;17.50
22827;DHT22;11580;52.562;13.418;2023-04-07T09:53:43;12.40;17.80
22827;DHT22;11580;52.562;13.418;2023-04-07T09:56:12;12.40;17.00
22827;DHT22;11580;52.562;13.418;2023-04-07T09:58:43;12.40;17.50
22827;DHT22;11580;52.562;13.418;2023-04-07T10:01:13;12.30;17.60
22827;DHT22;11580;52.562;13.418;2023-04-07T10:03:41;12.30;17.80
22827;DHT22;11580;52.562;13.418;2023-04-07T10:06:10;12.30;17.70
22827;DHT22;11580;52.562;13.418;2023-04-07T10:08:41;12.30;17.50
22827;DHT22;11580;52.562;13.418;2023-04-07T10:11:09;12.20;17.40
22827;DHT22;11580;52.562;13.418;2023-04-07T10:13:38;12.20;17.90
22827;DHT22;11580;52.562;13.418;2023-04-07T10:16:07;12.20;17.80
22827;DHT22;11580;52.562;13.418;2023-04-07T10:18:35;12.20;18.70
22827;DHT22;11580;52.562;13.418;2023-04-07T10:21:05;12.20;18.20
22827;DHT22;11580;52.562;13.418;2023-04-07T10:23:48;12.20;18.30
22827;DHT22;11580;52.562;13.418;2023-04-07T10:26:25;12.20;17.60
22827;DHT22;11580;52.562;13.418;2023-04-07T10:29:01;12.20;18.30
22827;DHT22;11580;52.562;13.418;2023-04-07T10:31:32;12.20;18.90
22827;DHT22;11580;52.562;13.418;2023-04-07T10:33:59;12.20;18.80
22827;DHT22;11580;52.562;13.418;2023-04-07T10:36:27;12.10;19.00
22827;DHT22;11580;52.562;13.418;2023-04-07T10:39:21;12.20;19.80
22827;DHT22;11580;52.562;13.418;2023-04-07T10:41:50;12.20;19.10
22827;DHT22;11580;52.562;13.418;2023-04-07T10:44:46;12.30;20.20
22827;DHT22;11580;52.562;13.418;2023-04-07T10:47:15;12.30;20.30
22827;DHT22;11580;52.562;13.418;2023-04-07T10:50:14;12.30;20.30
22827;DHT22;11580;52.562;13.418;2023-04-07T10:52:44;12.40;20.80
22827;DHT22;11580;52.562;13.418;2023-04-07T10:55:32;12.40;22.30
22827;DHT22;11580;52.562;13.418;2023-04-07T10:58:21;12.40;22.10
22827;DHT22;11580;52.562;13.418;2023-04-07T11:01:16;12.30;23.80
22827;DHT22;11580;52.562;13.418;2023-04-07T11:03:58;12.30;24.80
22827;DHT22;11580;52.562;13.418;2023-04-07T11:06:26;12.20;26.30
22827;DHT22;11580;52.562;13.418;2023-04-07T11:08:53;12.10;25.50
22827;DHT22;11580;52.562;13.418;2023-04-07T11:11:39;11.90;26.50
22827;DHT22;11580;52.562;13.418;2023-04-07T11:14:07;11.80;30.30
22827;DHT22;11580;52.562;13.418;2023-04-07T11:16:40;11.80;27.90
22827;DHT22;11580;52.562;13.418;2023-04-07T11:19:10;11.70;28.90
22827;DHT22;11580;52.562;13.418;2023-04-07T11:21:37;11.70;27.80
22827;DHT22;11580;52.562;13.418;2023-04-07T11:24:05;11.60;27.30
22827;DHT22;11580;52.562;13.418;2023-04-07T11:26:40;11.60;27.90
22827;DHT22;11580;52.562;13.418;2023-04-07T11:29:08;11.50;28.40
22827;DHT22;11580;52.562;13.418;2023-04-07T11:31:37;11.40;27.90
22827;DHT22;11580;52.562;13.418;2023-04-07T11:34:04;11.40;28.00
22827;DHT22;11580;52.562;13.418;2023-04-07T11:36:34;11.30;28.00
22827;DHT22;11580;52.562;13.418;2023-04-07T11:39:04;11.20;28.20
22827;DHT22;11580;52.562;13.418;2023-04-07T11:41:32;11.20;28.40
22827;DHT22;11580;52.562;13.418;2023-04-07T11:44:05;11.10;28.70
22827;DHT22;11580;52.562;13.418;2023-04-07T11:46:34;11.00;29.20
22827;DHT22;11580;52.562;13.418;2023-04-07T11:49:12;10.90;29.20
22827;DHT22;11580;52.562;13.418;2023-04-07T11:51:42;10.80;31.00
22827;DHT22;11580;52.562;13.418;2023-04-07T11:54:10;10.70;30.00
22827;DHT22;11580;52.562;13.418;2023-04-07T11:56:42;10.70;30.40
22827;DHT22;11580;52.562;13.418;2023-04-07T11:59:19;10.60;30.40
22827;DHT22;11580;52.562;13.418;2023-04-07T12:01:49;10.60;32.00
22827;DHT22;11580;52.562;13.418;2023-04-07T12:04:17;10.60;30.00
22827;DHT22;11580;52.562;13.418;2023-04-07T12:06:46;10.50;30.00
22827;DHT22;11580;52.562;13.418;2023-04-07T12:09:28;10.50;30.20
22827;DHT22;11580;52.562;13.418;2023-04-07T12:11:57;10.50;31.90
22827;DHT22;11580;52.562;13.418;2023-04-07T12:14:26;10.50;30.30
22827;DHT22;11580;52.562;13.418;2023-04-07T12:16:53;10.40;30.90
22827;DHT22;11580;52.562;13.418;2023-04-07T12:19:22;10.40;30.70
22827;DHT22;11580;52.562;13.418;2023-04-07T12:21:50;10.50;31.50
22827;DHT22;11580;52.562;13.418;2023-04-07T12:24:17;10.50;30.70
22827;DHT22;11580;52.562;13.418;2023-04-07T12:26:44;10.50;30.50
22827;DHT22;11580;52.562;13.418;2023-04-07T12:29:11;10.40;30.90
22827;DHT22;11580;52.562;13.418;2023-04-07T12:31:40;10.50;31.10
22827;DHT22;11580;52.562;13.418;2023-04-07T12:34:08;10.50;31.60
22827;DHT22;11580;52.562;13.418;2023-04-07T12:36:35;10.50;32.30
22827;DHT22;11580;52.562;13.418;2023-04-07T12:39:02;10.50;31.30
22827;DHT22;11580;52.562;13.418;2023-04-07T12:41:29;10.60;31.10
22827;DHT22;11580;52.562;13.418;2023-04-07T12:43:57;10.60;31.00
22827;DHT22;11580;52.562;13.418;2023-04-07T12:46:24;10.60;31.00
22827;DHT22;11580;52.562;13.418;2023-04-07T12:48:52;10.60;31.10
22827;DHT22;11580;52.562;13.418;2023-04-07T12:51:20;10.60;31.80
22827;DHT22;11580;52.562;13.418;2023-04-07T12:53:47;10.60;31.60
22827;DHT22;11580;52.562;13.418;2023-04-07T12:56:14;10.60;31.70
22827;DHT22;11580;52.562;13.418;2023-04-07T12:58:42;10.70;31.60
22827;DHT22;11580;52.562;13.418;2023-04-07T13:01:09;10.70;31.20
22827;DHT22;11580;52.562;13.418;2023-04-07T13:03:36;10.80;31.00
22827;DHT22;11580;52.562;13.418;2023-04-07T13:06:05;10.70;30.90
22827;DHT22;11580;52.562;13.418;2023-04-07T13:08:32;10.70;30.90
22827;DHT22;11580;52.562;13.418;2023-04-07T13:10:59;10.80;31.50
22827;DHT22;11580;52.562;13.418;2023-04-07T13:13:26;10.70;30.70
22827;DHT22;11580;52.562;13.418;2023-04-07T13:15:54;10.70;31.40
22827;DHT22;11580;52.562;13.418;2023-04-07T13:18:21;10.70;31.80
22827;DHT22;11580;52.562;13.418;2023-04-07T13:20:48;10.70;31.00
22827;DHT22;11580;52.562;13.418;2023-04-07T13:23:17;10.70;31.00
22827;DHT22;11580;52.562;13.418;2023-04-07T13:25:44;10.80;32.30
22827;DHT22;11580;52.562;13.418;2023-04-07T13:28:11;10.80;32.40
22827;DHT22;11580;52.562;13.418;2023-04-07T13:30:38;10.90;31.50
22827;DHT22;11580;52.562;13.418;2023-04-07T13:33:06;11.00;31.30
22827;DHT22;11580;52.562;13.418;2023-04-07T13:35:33;11.10;31.20
22827;DHT22;11580;52.562;13.418;2023-04-07T13:38:01;11.10;31.60
22827;DHT22;11580;52.562;13.418;2023-04-07T13:40:30;11.10;31.50
22827;DHT22;11580;52.562;13.418;2023-04-07T13:42:57;11.20;30.90
22827;DHT22;11580;52.562;13.418;2023-04-07T13:45:25;11.20;30.90
22827;DHT22;11580;52.562;13.418;2023-04-07T13:47:52;11.30;31.00
22827;DHT22;11580;52.562;13.418;2023-04-07T13:50:20;11.30;31.00
22827;DHT22;11580;52.562;13.418;2023-04-07T13:52:47;11.30;31.00
22827;DHT22;11580;52.562;13.418;2023-04-07T13:55:15;11.30;30.90
22827;DHT22;11580;52.562;13.418;2023-04-07T13:57:46;11.30;30.80
22827;DHT22;11580;52.562;13.418;2023-04-07T14:00:14;11.30;31.20
22827;DHT22;11580;52.562;13.418;2023-04-07T14:02:42;11.30;31.10
22827;DHT22;11580;52.562;13.418;2023-04-07T14:05:10;11.30;31.20
22827;DHT22;11580;52.562;13.418;2023-04-07T14:07:37;11.20;31.80
22827;DHT22;11580;52.562;13.418;2023-04-07T14:10:05;11.20;31.50
22827;DHT22;11580;52.562;13.418;2023-04-07T14:12:32;11.10;31.50
22827;DHT22;11580;52.562;13.418;2023-04-07T14:15:02;11.00;31.40
22827;DHT22;11580;52.562;13.418;2023-04-07T14:17:30;11.00;31.70
22827;DHT22;11580;52.562;13.418;2023-04-07T14:19:57;10.90;31.50
22827;DHT22;11580;52.562;13.418;2023-04-07T14:22:24;10.90;31.40
22827;DHT22;11580;52.562;13.418;2023-04-07T14:24:51;10.80;31.60
22827;DHT22;11580;52.562;13.418;2023-04-07T14:27:19;10.80;31.70
22827;DHT22;11580;52.562;13.418;2023-04-07T14:29:47;10.80;32.00
22827;DHT22;11580;52.562;13.418;2023-04-07T14:32:15;10.70;32.00
22827;DHT22;11580;52.562;13.418;2023-04-07T14:34:42;10.70;32.10
22827;DHT22;11580;52.562;13.418;2023-04-07T14:37:10;10.70;32.00
22827;DHT22;11580;52.562;13.418;2023-04-07T14:39:38;10.70;32.20
22827;DHT22;11580;52.562;13.418;2023-04-07T14:42:07;10.70;32.50
22827;DHT22;11580;52.562;13.418;2023-04-07T14:44:34;10.70;32.40
22827;DHT22;11580;52.562;13.418;2023-04-07T14:47:02;10.70;33.00
22827;DHT22;11580;52.562;13.418;2023-04-07T14:49:30;10.70;32.10
22827;DHT22;11580;52.562;13.418;2023-04-07T14:51:57;10.70;32.80
22827;DHT22;11580;52.562;13.418;2023-04-07T14:54:24;10.70;32.70
22827;DHT22;11580;52.562;13.418;2023-04-07T14:56:52;10.70;32.00
22827;DHT22;11580;52.562;13.418;2023-04-07T14:59:19;10.70;32.80
22827;DHT22;11580;52.562;13.418;2023-04-07T15:01:46;10.70;32.10
22827;DHT22;11580;52.562;13.418;2023-04-07T15:04:13;10.70;32.10
22827;DHT22;11580;52.562;13.418;2023-04-07T15:06:42;10.70;32.80
22827;DHT22;11580;52.562;13.418;2023-04-07T15:09:09;10.70;32.30
22827;DHT22;11580;52.562;13.418;2023-04-07T15:11:37;10.70;33.00
22827;DHT22;11580;52.562;13.418;2023-04-07T15:14:04;10.70;32.40
22827;DHT22;11580;52.562;13.418;2023-04-07T15:16:31;10.70;32.30
22827;DHT22;11580;52.562;13.418;2023-04-07T15:18:59;10.70;32.40
22827;DHT22;11580;52.562;13.418;2023-04-07T15:21:26;10.70;32.40
22827;DHT22;11580;52.562;13.418;2023-04-07T15:23:54;10.70;32.50
22827;DHT22;11580;52.562;13.418;2023-04-07T15:26:22;10.70;32.70
22827;DHT22;11580;52.562;13.418;2023-04-07T15:28:49;10.70;32.50
22827;DHT22;11580;52.562;13.418;2023-04-07T15:31:17;10.70;32.50
22827;DHT22;11580;52.562;13.418;2023-04-07T15:33:46;10.70;32.60
22827;DHT22;11580;52.562;13.418;2023-04-07T15:36:13;10.60;32.60
22827;DHT22;11580;52.562;13.418;2023-04-07T15:38:40;10.60;32.60
22827;DHT22;11580;52.562;13.418;2023-04-07T15:41:08;10.60;32.80